sensor_id;sensor_type;location;lat;lon;timestamp;pressure;altitude;pressure_sealevel;temperature;humidity
75646;BME280;64237;52.438;13.240;2023-06-22T00:01:08;101442.72;;;18.84;94.87
75646;BME280;64237;52.438;13.240;2023-06-22T00:03:34;101450.84;;;18.86;94.63
75646;BME280;64237;52.438;13.240;2023-06-22T00:05:59;101458.16;;;18.76;94.71
75646;BME280;64237;52.438;13.240;2023-06-22T00:08:24;101458.47;;;18.80;95.17
75646;BME280;64237;52.438;13.240;2023-06-22T00:10:50;101466.31;;;18.78;94.81
75646;BME280;64237;52.438;13.240;2023-06-22T00:13:16;101464.88;;;18.70;95.70
75646;BME280;64237;52.438;13.240;2023-06-22T00:15:42;101464.88;;;18.70;95.40
75646;BME280;64237;52.438;13.240;2023-06-22T00:18:09;101464.88;;;18.70;94.99
75646;BME280;64237;52.438;13.240;2023-06-22T00:20:34;101466.84;;;18.70;95.04
75646;BME280;64237;52.438;13.240;2023-06-22T00:23:03;101476.38;;;18.64;95.50
75646;BME280;64237;52.438;13.240;2023-06-22T00:25:36;101472.47;;;18.60;95.88
75646;BME280;64237;52.438;13.240;2023-06-22T00:28:02;101468.25;;;18.62;96.34
75646;BME280;64237;52.438;13.240;2023-06-22T00:30:29;101467.94;;;18.59;96.31
75646;BME280;64237;52.438;13.240;2023-06-22T00:32:54;101468.50;;;18.56;96.74
75646;BME280;64237;52.438;13.240;2023-06-22T00:35:19;101476.34;;;18.54;96.56
75646;BME280;64237;52.438;13.240;2023-06-22T00:37:44;101478.06;;;18.65;96.19
75646;BME280;64237;52.438;13.240;2023-06-22T00:40:10;101469.63;;;18.55;96.44
75646;BME280;64237;52.438;13.240;2023-06-22T00:42:37;101470.47;;;18.55;96.76
75646;BME280;64237;52.438;13.240;2023-06-22T00:45:04;101475.22;;;18.55;96.70
75646;BME280;64237;52.438;13.240;2023-06-22T00:47:30;101465.13;;;18.54;96.47
75646;BME280;64237;52.438;13.240;2023-06-22T00:49:55;101463.75;;;18.56;96.38
75646;BME280;64237;52.438;13.240;2023-06-22T00:52:22;101474.66;;;18.53;96.58
75646;BME280;64237;52.438;13.240;2023-06-22T00:54:52;101478.84;;;18.50;96.24
75646;BME280;64237;52.438;13.240;2023-06-22T00:57:18;101482.22;;;18.47;96.19
75646;BME280;64237;52.438;13.240;2023-06-22T00:59:45;101474.91;;;18.46;96.29
75646;BME280;64237;52.438;13.240;2023-06-22T01:02:12;101479.69;;;18.45;96.04
75646;BME280;64237;52.438;13.240;2023-06-22T01:04:39;101481.38;;;18.46;95.88
75646;BME280;64237;52.438;13.240;2023-06-22T01:07:29;101485.28;;;18.45;95.76
75646;BME280;64237;52.438;13.240;2023-06-22T01:12:22;101480.81;;;18.39;95.76
75646;BME280;64237;52.438;13.240;2023-06-22T01:14:55;101480.81;;;18.44;95.14
75646;BME280;64237;52.438;13.240;2023-06-22T01:17:23;101485.00;;;18.42;94.97
75646;BME280;64237;52.438;13.240;2023-06-22T01:19:51;101488.91;;;18.41;94.70
75646;BME280;64237;52.438;13.240;2023-06-22T01:22:24;101484.16;;;18.31;95.24
75646;BME280;64237;52.438;13.240;2023-06-22T01:25:21;101492.84;;;18.35;95.13
75646;BME280;64237;52.438;13.240;2023-06-22T01:30:54;101483.88;;;18.33;96.27
75646;BME280;64237;52.438;13.240;2023-06-22T01:33:29;101485.25;;;18.25;97.03
75646;BME280;64237;52.438;13.240;2023-06-22T01:35:56;101491.69;;;18.26;96.97
75646;BME280;64237;52.438;13.240;2023-06-22T01:38:21;101482.72;;;18.24;96.79
75646;BME280;64237;52.438;13.240;2023-06-22T01:40:48;101492.53;;;18.26;96.95
75646;BME280;64237;52.438;13.240;2023-06-22T01:43:14;101498.72;;;18.33;96.46
75646;BME280;64237;52.438;13.240;2023-06-22T01:45:39;101493.13;;;18.33;96.30
75646;BME280;64237;52.438;13.240;2023-06-22T01:48:05;101490.91;;;18.35;96.07
75646;BME280;64237;52.438;13.240;2023-06-22T01:50:31;101489.75;;;18.31;96.47
75646;BME280;64237;52.438;13.240;2023-06-22T01:52:57;101496.50;;;18.35;96.75
75646;BME280;64237;52.438;13.240;2023-06-22T01:55:22;101494.25;;;18.37;96.20
75646;BME280;64237;52.438;13.240;2023-06-22T01:57:48;101492.56;;;18.36;96.20
75646;BME280;64237;52.438;13.240;2023-06-22T02:00:18;101510.50;;;18.30;96.48
75646;BME280;64237;52.438;13.240;2023-06-22T02:02:51;101502.91;;;18.26;97.00
75646;BME280;64237;52.438;13.240;2023-06-22T02:05:19;101494.47;;;18.21;97.64
75646;BME280;64237;52.438;13.240;2023-06-22T02:07:49;101506.53;;;18.26;97.26
75646;BME280;64237;52.438;13.240;2023-06-22T02:10:16;101509.91;;;18.23;97.44
75646;BME280;64237;52.438;13.240;2023-06-22T02:12:45;101506.53;;;18.21;97.50
75646;BME280;64237;52.438;13.240;2023-06-22T02:15:11;101513.31;;;18.35;96.24
75646;BME280;64237;52.438;13.240;2023-06-22T02:17:38;101525.59;;;18.29;97.33
75646;BME280;64237;52.438;13.240;2023-06-22T02:20:04;101520.81;;;18.20;97.51
75646;BME280;64237;52.438;13.240;2023-06-22T02:22:32;101516.03;;;18.20;98.01
75646;BME280;64237;52.438;13.240;2023-06-22T02:24:58;101519.41;;;18.22;97.75
75646;BME280;64237;52.438;13.240;2023-06-22T02:27:23;101522.00;;;18.34;97.43
75646;BME280;64237;52.438;13.240;2023-06-22T02:29:49;101518.31;;;18.28;97.66
75646;BME280;64237;52.438;13.240;2023-06-22T02:32:14;101523.38;;;18.31;97.16
75646;BME280;64237;52.438;13.240;2023-06-22T02:34:42;101517.78;;;18.36;96.93
75646;BME280;64237;52.438;13.240;2023-06-22T02:37:08;101510.78;;;18.34;97.08
75646;BME280;64237;52.438;13.240;2023-06-22T02:39:36;101506.03;;;18.39;96.99
75646;BME280;64237;52.438;13.240;2023-06-22T02:42:02;101508.81;;;18.34;97.21
75646;BME280;64237;52.438;13.240;2023-06-22T02:44:27;101520.91;;;18.40;96.97
75646;BME280;64237;52.438;13.240;2023-06-22T02:46:53;101523.13;;;18.38;97.44
75646;BME280;64237;52.438;13.240;2023-06-22T02:49:19;101518.34;;;18.43;97.17
75646;BME280;64237;52.438;13.240;2023-06-22T02:51:46;101521.75;;;18.50;97.83
75646;BME280;64237;52.438;13.240;2023-06-22T02:54:12;101511.34;;;18.46;97.88
75646;BME280;64237;52.438;13.240;2023-06-22T02:56:38;101517.22;;;18.44;97.80
75646;BME280;64237;52.438;13.240;2023-06-22T02:59:06;101511.63;;;18.44;97.82
75646;BME280;64237;52.438;13.240;2023-06-22T03:01:31;101513.31;;;18.45;97.90
75646;BME280;64237;52.438;13.240;2023-06-22T03:04:03;101512.22;;;18.52;97.89
75646;BME280;64237;52.438;13.240;2023-06-22T03:06:29;101520.06;;;18.49;97.97
75646;BME280;64237;52.438;13.240;2023-06-22T03:08:59;101515.81;;;18.42;98.42
75646;BME280;64237;52.438;13.240;2023-06-22T03:11:25;101511.63;;;18.44;98.63
75646;BME280;64237;52.438;13.240;2023-06-22T03:13:50;101504.34;;;18.48;98.38
75646;BME280;64237;52.438;13.240;2023-06-22T03:16:17;101507.72;;;18.50;98.71
75646;BME280;64237;52.438;13.240;2023-06-22T03:18:43;101506.06;;;18.55;98.28
75646;BME280;64237;52.438;13.240;2023-06-22T03:21:08;101508.28;;;18.53;98.24
75646;BME280;64237;52.438;13.240;2023-06-22T03:23:33;101509.44;;;18.57;98.15
75646;BME280;64237;52.438;13.240;2023-06-22T03:25:59;101509.69;;;18.55;98.53
75646;BME280;64237;52.438;13.240;2023-06-22T03:28:24;101514.75;;;18.53;97.77
75646;BME280;64237;52.438;13.240;2023-06-22T03:30:49;101523.44;;;18.57;98.28
75646;BME280;64237;52.438;13.240;2023-06-22T03:33:14;101520.63;;;18.57;98.84
75646;BME280;64237;52.438;13.240;2023-06-22T03:35:40;101519.78;;;18.56;98.61
75646;BME280;64237;52.438;13.240;2023-06-22T03:38:05;101513.66;;;18.59;98.32
75646;BME280;64237;52.438;13.240;2023-06-22T03:40:30;101510.59;;;18.61;98.62
75646;BME280;64237;52.438;13.240;2023-06-22T03:42:56;101508.91;;;18.60;98.75
75646;BME280;64237;52.438;13.240;2023-06-22T03:45:21;101508.84;;;18.55;98.83
75646;BME280;64237;52.438;13.240;2023-06-22T03:47:46;101508.59;;;18.56;99.17
75646;BME280;64237;52.438;13.240;2023-06-22T03:50:12;101508.91;;;18.60;99.01
75646;BME280;64237;52.438;13.240;2023-06-22T03:52:38;101519.81;;;18.66;98.71
75646;BME280;64237;52.438;13.240;2023-06-22T03:55:04;101524.03;;;18.69;99.05
75646;BME280;64237;52.438;13.240;2023-06-22T03:57:30;101523.22;;;18.73;98.85
75646;BME280;64237;52.438;13.240;2023-06-22T03:59:57;101524.91;;;18.79;98.28
75646;BME280;64237;52.438;13.240;2023-06-22T04:02:23;101531.66;;;18.83;98.20
75646;BME280;64237;52.438;13.240;2023-06-22T04:04:48;101531.34;;;18.85;98.34
75646;BME280;64237;52.438;13.240;2023-06-22T04:07:13;101522.94;;;18.85;98.95
75646;BME280;64237;52.438;13.240;2023-06-22T04:09:39;101518.16;;;18.91;98.49
75646;BME280;64237;52.438;13.240;2023-06-22T04:12:05;101531.91;;;18.97;98.12
75646;BME280;64237;52.438;13.240;2023-06-22T04:14:30;101531.38;;;19.00;98.21
75646;BME280;64237;52.438;13.240;2023-06-22T04:16:55;101532.22;;;19.01;97.86
75646;BME280;64237;52.438;13.240;2023-06-22T04:19:21;101524.59;;;19.06;97.40
75646;BME280;64237;52.438;13.240;2023-06-22T04:21:46;101531.34;;;19.10;96.79
75646;BME280;64237;52.438;13.240;2023-06-22T04:24:13;101540.34;;;19.17;96.84
75646;BME280;64237;52.438;13.240;2023-06-22T04:26:39;101533.03;;;19.22;96.37
75646;BME280;64237;52.438;13.240;2023-06-22T04:29:07;101543.69;;;19.20;96.83
75646;BME280;64237;52.438;13.240;2023-06-22T04:31:34;101547.63;;;19.24;95.02
75646;BME280;64237;52.438;13.240;2023-06-22T04:34:02;101552.94;;;19.30;93.74
75646;BME280;64237;52.438;13.240;2023-06-22T04:36:38;101560.50;;;19.35;91.86
75646;BME280;64237;52.438;13.240;2023-06-22T04:39:11;101562.47;;;19.39;92.47
75646;BME280;64237;52.438;13.240;2023-06-22T04:41:38;101560.53;;;19.45;93.00
75646;BME280;64237;52.438;13.240;2023-06-22T04:44:12;101567.53;;;19.52;91.47
75646;BME280;64237;52.438;13.240;2023-06-22T04:46:39;101562.47;;;19.60;90.49
75646;BME280;64237;52.438;13.240;2023-06-22T04:49:06;101555.41;;;19.72;90.40
75646;BME280;64237;52.438;13.240;2023-06-22T04:51:39;101558.72;;;19.95;87.33
75646;BME280;64237;52.438;13.240;2023-06-22T04:54:05;101560.94;;;20.13;86.83
75646;BME280;64237;52.438;13.240;2023-06-22T04:56:31;101564.75;;;20.42;84.71
75646;BME280;64237;52.438;13.240;2023-06-22T04:58:56;101559.06;;;20.52;84.48
75646;BME280;64237;52.438;13.240;2023-06-22T05:01:23;101551.75;;;20.57;82.80
75646;BME280;64237;52.438;13.240;2023-06-22T05:03:48;101550.22;;;20.74;82.24
75646;BME280;64237;52.438;13.240;2023-06-22T05:06:14;101556.31;;;20.86;81.28
75646;BME280;64237;52.438;13.240;2023-06-22T05:08:40;101555.31;;;20.67;82.65
75646;BME280;64237;52.438;13.240;2023-06-22T05:11:05;101551.13;;;20.60;82.24
75646;BME280;64237;52.438;13.240;2023-06-22T05:13:32;101555.13;;;20.53;80.85
75646;BME280;64237;52.438;13.240;2023-06-22T05:16:00;101558.16;;;20.62;82.33
75646;BME280;64237;52.438;13.240;2023-06-22T05:18:29;101558.38;;;20.76;80.95
75646;BME280;64237;52.438;13.240;2023-06-22T05:20:55;101553.81;;;20.80;81.56
75646;BME280;64237;52.438;13.240;2023-06-22T05:23:20;101570.09;;;20.88;80.01
75646;BME280;64237;52.438;13.240;2023-06-22T05:25:45;101568.63;;;20.96;79.13
75646;BME280;64237;52.438;13.240;2023-06-22T05:28:11;101563.88;;;20.91;79.56
75646;BME280;64237;52.438;13.240;2023-06-22T05:30:37;101556.03;;;20.88;77.39
75646;BME280;64237;52.438;13.240;2023-06-22T05:33:03;101550.97;;;20.85;78.58
75646;BME280;64237;52.438;13.240;2023-06-22T05:35:28;101559.97;;;20.87;79.37
75646;BME280;64237;52.438;13.240;2023-06-22T05:37:54;101557.13;;;20.92;79.59
75646;BME280;64237;52.438;13.240;2023-06-22T05:40:20;101560.47;;;20.94;79.24
75646;BME280;64237;52.438;13.240;2023-06-22T05:42:45;101563.84;;;20.96;80.46
75646;BME280;64237;52.438;13.240;2023-06-22T05:45:11;101576.69;;;21.07;78.47
75646;BME280;64237;52.438;13.240;2023-06-22T05:47:36;101578.63;;;21.12;77.58
75646;BME280;64237;52.438;13.240;2023-06-22T05:50:01;101582.84;;;21.14;75.03
75646;BME280;64237;52.438;13.240;2023-06-22T05:52:31;101573.25;;;21.15;78.32
75646;BME280;64237;52.438;13.240;2023-06-22T05:54:56;101575.97;;;21.31;76.09
75646;BME280;64237;52.438;13.240;2023-06-22T05:57:22;101576.47;;;21.38;77.07
75646;BME280;64237;52.438;13.240;2023-06-22T05:59:47;101576.13;;;21.44;77.91
75646;BME280;64237;52.438;13.240;2023-06-22T06:02:12;101575.78;;;21.51;75.03
75646;BME280;64237;52.438;13.240;2023-06-22T06:04:38;101571.50;;;21.59;74.52
75646;BME280;64237;52.438;13.240;2023-06-22T06:07:03;101568.41;;;21.55;74.33
75646;BME280;64237;52.438;13.240;2023-06-22T06:09:29;101568.38;;;21.60;73.55
75646;BME280;64237;52.438;13.240;2023-06-22T06:11:54;101562.63;;;21.70;73.82
75646;BME280;64237;52.438;13.240;2023-06-22T06:14:19;101560.25;;;21.82;72.23
75646;BME280;64237;52.438;13.240;2023-06-22T06:16:45;101560.13;;;21.93;72.44
75646;BME280;64237;52.438;13.240;2023-06-22T06:19:10;101557.78;;;22.00;71.90
75646;BME280;64237;52.438;13.240;2023-06-22T06:21:36;101557.09;;;22.13;70.11
75646;BME280;64237;52.438;13.240;2023-06-22T06:24:01;101571.06;;;22.23;69.07
75646;BME280;64237;52.438;13.240;2023-06-22T06:26:27;101566.97;;;22.34;69.49
75646;BME280;64237;52.438;13.240;2023-06-22T06:28:58;101574.16;;;22.45;68.95
75646;BME280;64237;52.438;13.240;2023-06-22T06:31:24;101579.97;;;22.73;67.75
75646;BME280;64237;52.438;13.240;2023-06-22T06:33:49;101581.88;;;22.96;64.35
75646;BME280;64237;52.438;13.240;2023-06-22T06:36:14;101579.47;;;23.08;66.03
75646;BME280;64237;52.438;13.240;2023-06-22T06:38:40;101572.09;;;23.26;64.85
75646;BME280;64237;52.438;13.240;2023-06-22T06:41:05;101570.44;;;23.39;63.56
75646;BME280;64237;52.438;13.240;2023-06-22T06:43:31;101571.50;;;23.43;63.53
75646;BME280;64237;52.438;13.240;2023-06-22T06:45:56;101562.34;;;23.51;61.62
75646;BME280;64237;52.438;13.240;2023-06-22T06:48:21;101568.78;;;23.56;61.93
75646;BME280;64237;52.438;13.240;2023-06-22T06:50:47;101563.97;;;23.57;63.21
75646;BME280;64237;52.438;13.240;2023-06-22T06:53:13;101556.50;;;23.61;59.43
75646;BME280;64237;52.438;13.240;2023-06-22T06:55:38;101557.09;;;23.77;63.07
75646;BME280;64237;52.438;13.240;2023-06-22T06:58:03;101546.84;;;23.95;59.85
75646;BME280;64237;52.438;13.240;2023-06-22T07:00:33;101542.09;;;24.04;59.06
75646;BME280;64237;52.438;13.240;2023-06-22T07:02:58;101543.06;;;24.13;57.46
75646;BME280;64237;52.438;13.240;2023-06-22T07:05:23;101536.66;;;24.35;56.23
75646;BME280;64237;52.438;13.240;2023-06-22T07:07:49;101532.38;;;24.37;56.56
75646;BME280;64237;52.438;13.240;2023-06-22T07:10:14;101542.13;;;24.45;56.74
75646;BME280;64237;52.438;13.240;2023-06-22T07:12:40;101533.41;;;24.41;56.18
75646;BME280;64237;52.438;13.240;2023-06-22T07:15:07;101533.91;;;24.57;57.23
75646;BME280;64237;52.438;13.240;2023-06-22T07:17:33;101536.47;;;24.81;56.00
75646;BME280;64237;52.438;13.240;2023-06-22T07:19:59;101538.38;;;24.94;52.35
75646;BME280;64237;52.438;13.240;2023-06-22T07:22:24;101535.03;;;24.92;51.09
75646;BME280;64237;52.438;13.240;2023-06-22T07:24:50;101537.41;;;24.76;52.30
75646;BME280;64237;52.438;13.240;2023-06-22T07:27:16;101535.28;;;24.82;53.07
75646;BME280;64237;52.438;13.240;2023-06-22T07:29:45;101525.66;;;24.83;51.20
75646;BME280;64237;52.438;13.240;2023-06-22T07:32:10;101531.50;;;24.86;50.99
75646;BME280;64237;52.438;13.240;2023-06-22T07:34:36;101522.81;;;24.83;50.58
75646;BME280;64237;52.438;13.240;2023-06-22T07:37:01;101529.84;;;24.85;51.73
75646;BME280;64237;52.438;13.240;2023-06-22T07:39:26;101534.03;;;24.88;50.32
75646;BME280;64237;52.438;13.240;2023-06-22T07:41:53;101535.66;;;25.03;51.36
75646;BME280;64237;52.438;13.240;2023-06-22T07:44:18;101530.03;;;24.89;48.98
75646;BME280;64237;52.438;13.240;2023-06-22T07:46:44;101526.84;;;24.90;49.58
75646;BME280;64237;52.438;13.240;2023-06-22T07:49:09;101520.41;;;24.76;52.13
75646;BME280;64237;52.438;13.240;2023-06-22T07:51:34;101526.19;;;24.71;51.35
75646;BME280;64237;52.438;13.240;2023-06-22T07:54:00;101539.50;;;24.71;50.29
75646;BME280;64237;52.438;13.240;2023-06-22T07:56:25;101533.28;;;24.60;49.38
75646;BME280;64237;52.438;13.240;2023-06-22T07:58:51;101537.34;;;24.68;50.19
75646;BME280;64237;52.438;13.240;2023-06-22T08:01:16;101536.56;;;24.76;53.68
75646;BME280;64237;52.438;13.240;2023-06-22T08:03:42;101542.00;;;24.86;51.30
75646;BME280;64237;52.438;13.240;2023-06-22T08:06:09;101534.88;;;24.88;47.24
75646;BME280;64237;52.438;13.240;2023-06-22T08:08:37;101539.03;;;24.91;49.90
75646;BME280;64237;52.438;13.240;2023-06-22T08:11:03;101530.03;;;24.89;47.65
75646;BME280;64237;52.438;13.240;2023-06-22T08:13:29;101532.72;;;24.94;47.77
75646;BME280;64237;52.438;13.240;2023-06-22T08:15:54;101533.72;;;24.89;51.33
75646;BME280;64237;52.438;13.240;2023-06-22T08:18:20;101541.72;;;24.74;46.13
75646;BME280;64237;52.438;13.240;2023-06-22T08:20:45;101521.03;;;24.87;46.72
75646;BME280;64237;52.438;13.240;2023-06-22T08:23:11;101536.84;;;24.88;48.19
75646;BME280;64237;52.438;13.240;2023-06-22T08:25:36;101530.75;;;24.94;47.21
75646;BME280;64237;52.438;13.240;2023-06-22T08:28:03;101525.19;;;25.03;46.37
75646;BME280;64237;52.438;13.240;2023-06-22T08:30:28;101528.13;;;25.20;45.47
75646;BME280;64237;52.438;13.240;2023-06-22T08:32:54;101526.97;;;25.21;47.71
75646;BME280;64237;52.438;13.240;2023-06-22T08:35:21;101535.25;;;25.40;46.45
75646;BME280;64237;52.438;13.240;2023-06-22T08:37:47;101522.00;;;25.58;47.20
75646;BME280;64237;52.438;13.240;2023-06-22T08:40:17;101529.44;;;25.68;49.73
75646;BME280;64237;52.438;13.240;2023-06-22T08:42:42;101529.88;;;25.61;45.76
75646;BME280;64237;52.438;13.240;2023-06-22T08:45:08;101522.63;;;25.77;46.30
75646;BME280;64237;52.438;13.240;2023-06-22T08:47:34;101516.03;;;25.90;49.06
75646;BME280;64237;52.438;13.240;2023-06-22T08:49:59;101522.06;;;25.98;45.93
75646;BME280;64237;52.438;13.240;2023-06-22T08:52:27;101516.72;;;26.05;46.84
75646;BME280;64237;52.438;13.240;2023-06-22T08:54:52;101523.72;;;25.99;45.26
75646;BME280;64237;52.438;13.240;2023-06-22T08:57:17;101524.50;;;25.82;45.75
75646;BME280;64237;52.438;13.240;2023-06-22T08:59:43;101526.72;;;25.93;43.89
75646;BME280;64237;52.438;13.240;2023-06-22T09:02:08;101518.91;;;26.08;48.88
75646;BME280;64237;52.438;13.240;2023-06-22T09:04:34;101514.63;;;26.19;43.69
75646;BME280;64237;52.438;13.240;2023-06-22T09:07:02;101521.78;;;26.16;42.65
75646;BME280;64237;52.438;13.240;2023-06-22T09:09:28;101511.59;;;26.15;43.29
75646;BME280;64237;52.438;13.240;2023-06-22T09:11:53;101508.53;;;26.51;45.01
75646;BME280;64237;52.438;13.240;2023-06-22T09:14:19;101502.84;;;26.51;44.63
75646;BME280;64237;52.438;13.240;2023-06-22T09:16:44;101510.03;;;26.57;45.04
75646;BME280;64237;52.438;13.240;2023-06-22T09:19:10;101514.84;;;26.48;43.59
75646;BME280;64237;52.438;13.240;2023-06-22T09:21:35;101508.84;;;26.41;43.80
75646;BME280;64237;52.438;13.240;2023-06-22T09:24:01;101514.56;;;26.58;44.91
75646;BME280;64237;52.438;13.240;2023-06-22T09:26:26;101506.34;;;26.40;45.90
75646;BME280;64237;52.438;13.240;2023-06-22T09:28:51;101514.53;;;26.41;44.97
75646;BME280;64237;52.438;13.240;2023-06-22T09:31:17;101512.16;;;26.43;44.81
75646;BME280;64237;52.438;13.240;2023-06-22T09:33:42;101497.50;;;26.41;45.15
75646;BME280;64237;52.438;13.240;2023-06-22T09:36:08;101508.34;;;26.65;44.41
75646;BME280;64237;52.438;13.240;2023-06-22T09:38:37;101502.84;;;26.86;46.14
75646;BME280;64237;52.438;13.240;2023-06-22T09:41:03;101502.00;;;26.94;45.42
75646;BME280;64237;52.438;13.240;2023-06-22T09:43:31;101496.19;;;26.99;44.88
75646;BME280;64237;52.438;13.240;2023-06-22T09:45:56;101496.66;;;26.92;43.38
75646;BME280;64237;52.438;13.240;2023-06-22T09:48:22;101490.81;;;26.89;46.08
75646;BME280;64237;52.438;13.240;2023-06-22T09:50:47;101495.63;;;27.31;45.75
75646;BME280;64237;52.438;13.240;2023-06-22T09:53:12;101495.09;;;27.47;45.87
75646;BME280;64237;52.438;13.240;2023-06-22T09:55:38;101493.72;;;27.53;44.53
75646;BME280;64237;52.438;13.240;2023-06-22T09:58:03;101499.84;;;27.72;44.00
75646;BME280;64237;52.438;13.240;2023-06-22T10:00:28;101499.41;;;27.70;48.60
75646;BME280;64237;52.438;13.240;2023-06-22T10:02:54;101499.06;;;27.54;42.20
75646;BME280;64237;52.438;13.240;2023-06-22T10:05:21;101490.53;;;27.63;44.49
75646;BME280;64237;52.438;13.240;2023-06-22T10:07:46;101483.44;;;27.22;42.69
75646;BME280;64237;52.438;13.240;2023-06-22T10:10:12;101497.50;;;26.93;43.86
75646;BME280;64237;52.438;13.240;2023-06-22T10:12:42;101488.81;;;27.15;44.26
75646;BME280;64237;52.438;13.240;2023-06-22T10:15:08;101493.31;;;27.25;43.60
75646;BME280;64237;52.438;13.240;2023-06-22T10:17:34;101491.88;;;27.66;44.66
75646;BME280;64237;52.438;13.240;2023-06-22T10:20:00;101489.28;;;27.81;43.43
75646;BME280;64237;52.438;13.240;2023-06-22T10:22:26;101492.63;;;27.83;43.66
75646;BME280;64237;52.438;13.240;2023-06-22T10:24:51;101484.50;;;28.03;41.06
75646;BME280;64237;52.438;13.240;2023-06-22T10:27:17;101485.06;;;28.46;42.04
75646;BME280;64237;52.438;13.240;2023-06-22T10:29:42;101483.34;;;28.75;40.25
75646;BME280;64237;52.438;13.240;2023-06-22T10:32:08;101476.06;;;28.86;40.40
75646;BME280;64237;52.438;13.240;2023-06-22T10:34:33;101478.38;;;29.38;43.09
75646;BME280;64237;52.438;13.240;2023-06-22T10:36:59;101479.22;;;29.38;38.64
75646;BME280;64237;52.438;13.240;2023-06-22T10:39:24;101473.94;;;29.73;39.33
75646;BME280;64237;52.438;13.240;2023-06-22T10:41:52;101479.47;;;29.00;38.28
75646;BME280;64237;52.438;13.240;2023-06-22T10:44:18;101476.38;;;28.63;41.46
75646;BME280;64237;52.438;13.240;2023-06-22T10:46:43;101468.00;;;28.17;39.87
75646;BME280;64237;52.438;13.240;2023-06-22T10:49:08;101466.31;;;28.45;42.57
75646;BME280;64237;52.438;13.240;2023-06-22T10:51:34;101461.41;;;29.08;39.96
75646;BME280;64237;52.438;13.240;2023-06-22T10:54:03;101447.78;;;29.59;39.39
75646;BME280;64237;52.438;13.240;2023-06-22T10:56:29;101449.09;;;29.86;38.72
75646;BME280;64237;52.438;13.240;2023-06-22T10:58:54;101459.09;;;29.80;38.96
75646;BME280;64237;52.438;13.240;2023-06-22T11:01:20;101448.25;;;30.10;38.41
75646;BME280;64237;52.438;13.240;2023-06-22T11:03:45;101448.25;;;30.10;35.67
75646;BME280;64237;52.438;13.240;2023-06-22T11:06:11;101444.44;;;30.18;37.45
75646;BME280;64237;52.438;13.240;2023-06-22T11:08:36;101446.19;;;30.47;36.74
75646;BME280;64237;52.438;13.240;2023-06-22T11:11:01;101445.94;;;31.08;37.17
75646;BME280;64237;52.438;13.240;2023-06-22T11:13:27;101440.81;;;30.45;34.67
75646;BME280;64237;52.438;13.240;2023-06-22T11:15:52;101438.50;;;30.11;36.15
75646;BME280;64237;52.438;13.240;2023-06-22T11:18:17;101427.03;;;30.35;36.41
75646;BME280;64237;52.438;13.240;2023-06-22T11:20:43;101424.09;;;30.72;35.10
75646;BME280;64237;52.438;13.240;2023-06-22T11:23:11;101419.28;;;31.03;36.19
75646;BME280;64237;52.438;13.240;2023-06-22T11:25:37;101411.88;;;30.87;33.81
75646;BME280;64237;52.438;13.240;2023-06-22T11:28:03;101407.34;;;30.86;35.18
75646;BME280;64237;52.438;13.240;2023-06-22T11:30:29;101409.22;;;30.94;35.04
75646;BME280;64237;52.438;13.240;2023-06-22T11:32:56;101412.81;;;31.66;34.40
75646;BME280;64237;52.438;13.240;2023-06-22T11:35:21;101413.75;;;31.39;34.48
75646;BME280;64237;52.438;13.240;2023-06-22T11:37:47;101419.16;;;31.44;33.97
75646;BME280;64237;52.438;13.240;2023-06-22T11:40:15;101418.34;;;31.59;32.32
75646;BME280;64237;52.438;13.240;2023-06-22T11:42:48;101423.66;;;32.08;34.31
75646;BME280;64237;52.438;13.240;2023-06-22T11:45:13;101428.72;;;31.79;33.68
75646;BME280;64237;52.438;13.240;2023-06-22T11:47:39;101436.84;;;31.77;32.68
75646;BME280;64237;52.438;13.240;2023-06-22T11:50:05;101434.75;;;31.62;36.03
75646;BME280;64237;52.438;13.240;2023-06-22T11:52:34;101444.41;;;30.42;34.23
75646;BME280;64237;52.438;13.240;2023-06-22T11:55:07;101440.91;;;30.09;36.02
75646;BME280;64237;52.438;13.240;2023-06-22T11:57:55;101430.13;;;30.42;35.86
75646;BME280;64237;52.438;13.240;2023-06-22T12:00:23;101414.00;;;30.10;34.27
75646;BME280;64237;52.438;13.240;2023-06-22T12:02:50;101417.91;;;29.93;34.42
75646;BME280;64237;52.438;13.240;2023-06-22T12:05:17;101410.13;;;30.98;35.85
75646;BME280;64237;52.438;13.240;2023-06-22T12:07:43;101399.81;;;31.37;32.16
75646;BME280;64237;52.438;13.240;2023-06-22T12:10:08;101395.25;;;31.83;33.15
75646;BME280;64237;52.438;13.240;2023-06-22T12:12:34;101393.81;;;31.74;32.64
75646;BME280;64237;52.438;13.240;2023-06-22T12:14:59;101389.53;;;31.20;31.33
75646;BME280;64237;52.438;13.240;2023-06-22T12:17:28;101397.09;;;31.91;34.00
75646;BME280;64237;52.438;13.240;2023-06-22T12:19:54;101397.09;;;31.91;32.79
75646;BME280;64237;52.438;13.240;2023-06-22T12:22:19;101391.56;;;32.18;32.90
75646;BME280;64237;52.438;13.240;2023-06-22T12:24:44;101381.97;;;32.10;31.69
75646;BME280;64237;52.438;13.240;2023-06-22T12:27:10;101380.56;;;31.85;33.60
75646;BME280;64237;52.438;13.240;2023-06-22T12:29:35;101380.63;;;32.39;32.27
75646;BME280;64237;52.438;13.240;2023-06-22T12:32:00;101370.66;;;32.33;33.36
75646;BME280;64237;52.438;13.240;2023-06-22T12:34:26;101371.28;;;31.72;34.83
75646;BME280;64237;52.438;13.240;2023-06-22T12:36:54;101363.66;;;31.64;33.78
75646;BME280;64237;52.438;13.240;2023-06-22T12:39:25;101375.31;;;32.06;32.55
75646;BME280;64237;52.438;13.240;2023-06-22T12:41:51;101372.56;;;32.10;34.09